PWSweather.com
Personal Weather Stations
Station Observations
KILMORRI1
Goose Lake, Morris, IL 60450

Goose LakeMorris, IL 60450

Lat: 41.34, Lon: -88.3

Elevation: 523

Station Type:

www.gooselakeweather.com

High Low Average
Temperature 19.9°F-6.7°C 2.0°F-16.7°C 9.4°F-12.6°C
Dew Point 11.7°F-11.3°C -2.5°F-19.2°C 4.1°F-15.5°C
Winds 6.9 mph 11.1 kmh Calm Calm 3.0 mph ESE4.8 kmh ESE
Wind Gusts 9.2 mph14.8 kmh -- 4.0 mph6.4 kmh
Humidity 86% 69% 79%
Pressure 30.39 in1029.1 mb 30.28 in1025.4 mb -
Precipitation 0.04 in1.0 mm - -
Hour Temp Dew Point Humidity Winds Wind Gusts Pressure Precip Precip Rate Daily Precip Total
12:00 AM 2.0°F-16.7°C -2.5°F-19.2°C 81% 4.6 mph E7.4 kmh E 6.9 mph11.1 kmh 30.36 in1028.1 mb - 0.00 in0.0 mm 0.00 in0.0 mm
12:10 AM 2.2°F-16.6°C -2.3°F-19.1°C 81% 4.6 mph E7.4 kmh E 5.8 mph9.3 kmh 30.36 in1028.1 mb - 0.00 in0.0 mm 0.00 in0.0 mm
12:20 AM 2.4°F-16.4°C -2.1°F-18.9°C 81% 5.8 mph E9.3 kmh E 9.2 mph14.8 kmh 30.35 in1027.8 mb - 0.00 in0.0 mm 0.00 in0.0 mm
12:30 AM 2.6°F-16.3°C -1.9°F-18.8°C 81% 4.6 mph E7.4 kmh E 6.9 mph11.1 kmh 30.35 in1027.8 mb - 0.00 in0.0 mm 0.00 in0.0 mm
12:40 AM 2.8°F-16.2°C -1.7°F-18.7°C 81% 4.6 mph E7.4 kmh E 5.8 mph9.3 kmh 30.34 in1027.4 mb - 0.00 in0.0 mm 0.00 in0.0 mm
12:50 AM 2.9°F-16.2°C -1.6°F-18.7°C 81% 5.8 mph E9.3 kmh E 8.1 mph13.0 kmh 30.34 in1027.4 mb - 0.00 in0.0 mm 0.00 in0.0 mm
01:00 AM 2.9°F-16.2°C -1.9°F-18.8°C 80% 6.9 mph E11.1 kmh E 6.9 mph11.1 kmh 30.34 in1027.4 mb - 0.00 in0.0 mm 0.00 in0.0 mm
01:10 AM 3.1°F-16.1°C -1.4°F-18.6°C 81% 6.9 mph E11.1 kmh E 9.2 mph14.8 kmh 30.34 in1027.4 mb - 0.00 in0.0 mm 0.00 in0.0 mm
01:20 AM 3.2°F-16.0°C -1.6°F-18.7°C 80% 5.8 mph E9.3 kmh E 9.2 mph14.8 kmh 30.34 in1027.4 mb - 0.00 in0.0 mm 0.00 in0.0 mm
01:30 AM 3.3°F-15.9°C -1.5°F-18.6°C 80% 4.6 mph E7.4 kmh E 4.6 mph7.4 kmh 30.34 in1027.4 mb - 0.00 in0.0 mm 0.00 in0.0 mm
01:40 AM 3.5°F-15.8°C -1.3°F-18.5°C 80% 3.5 mph ENE5.6 kmh ENE 3.5 mph5.6 kmh 30.34 in1027.4 mb - 0.00 in0.0 mm 0.00 in0.0 mm
01:50 AM 3.6°F-15.8°C -1.2°F-18.4°C 80% 6.9 mph E11.1 kmh E 6.9 mph11.1 kmh 30.33 in1027.1 mb - 0.00 in0.0 mm 0.00 in0.0 mm
02:00 AM 3.7°F-15.7°C -1.1°F-18.4°C 80% 5.8 mph E9.3 kmh E 5.8 mph9.3 kmh 30.33 in1027.1 mb - 0.00 in0.0 mm 0.00 in0.0 mm
02:10 AM 3.8°F-15.7°C -1.0°F-18.3°C 80% 5.8 mph E9.3 kmh E 8.1 mph13.0 kmh 30.34 in1027.4 mb - 0.00 in0.0 mm 0.00 in0.0 mm
02:20 AM 4.0°F-15.6°C -0.8°F-18.2°C 80% 6.9 mph E11.1 kmh E 8.1 mph13.0 kmh 30.33 in1027.1 mb - 0.00 in0.0 mm 0.00 in0.0 mm
02:30 AM 4.1°F-15.5°C -0.7°F-18.2°C 80% 4.6 mph E7.4 kmh E 6.9 mph11.1 kmh 30.33 in1027.1 mb - 0.00 in0.0 mm 0.00 in0.0 mm
02:40 AM 4.2°F-15.4°C -0.6°F-18.1°C 80% 4.6 mph E7.4 kmh E 5.8 mph9.3 kmh 30.34 in1027.4 mb - 0.00 in0.0 mm 0.00 in0.0 mm
02:50 AM 4.4°F-15.3°C -0.4°F-18.0°C 80% 5.8 mph E9.3 kmh E 8.1 mph13.0 kmh 30.32 in1026.8 mb - 0.00 in0.0 mm 0.00 in0.0 mm
03:00 AM 4.4°F-15.3°C -0.4°F-18.0°C 80% 3.5 mph E5.6 kmh E 4.6 mph7.4 kmh 30.33 in1027.1 mb - 0.00 in0.0 mm 0.00 in0.0 mm
03:10 AM 4.6°F-15.2°C -0.2°F-17.9°C 80% 4.6 mph E7.4 kmh E 6.9 mph11.1 kmh 30.32 in1026.8 mb - 0.00 in0.0 mm 0.00 in0.0 mm
03:20 AM 4.6°F-15.2°C -0.2°F-17.9°C 80% 4.6 mph E7.4 kmh E 6.9 mph11.1 kmh 30.32 in1026.8 mb - 0.00 in0.0 mm 0.00 in0.0 mm
03:30 AM 4.7°F-15.2°C -0.1°F-17.8°C 80% 2.3 mph ENE3.7 kmh ENE 3.5 mph5.6 kmh 30.32 in1026.8 mb - 0.00 in0.0 mm 0.00 in0.0 mm
03:40 AM 4.8°F-15.1°C 0.0°F-17.8°C 80% 5.8 mph E9.3 kmh E 6.9 mph11.1 kmh 30.32 in1026.8 mb - 0.00 in0.0 mm 0.00 in0.0 mm
03:50 AM 4.9°F-15.1°C 0.1°F-17.7°C 80% 3.5 mph E5.6 kmh E 6.9 mph11.1 kmh 30.32 in1026.8 mb - 0.00 in0.0 mm 0.00 in0.0 mm
04:00 AM 5.0°F-15.0°C 0.2°F-17.7°C 80% 4.6 mph E7.4 kmh E 5.8 mph9.3 kmh 30.32 in1026.8 mb - 0.00 in0.0 mm 0.00 in0.0 mm
04:10 AM 5.2°F-14.9°C 0.4°F-17.6°C 80% 4.6 mph E7.4 kmh E 5.8 mph9.3 kmh 30.31 in1026.4 mb - 0.00 in0.0 mm 0.00 in0.0 mm
04:20 AM 5.2°F-14.9°C 0.4°F-17.6°C 80% 5.8 mph E9.3 kmh E 8.1 mph13.0 kmh 30.31 in1026.4 mb - 0.00 in0.0 mm 0.00 in0.0 mm
04:30 AM 5.4°F-14.8°C 0.6°F-17.4°C 80% 5.8 mph E9.3 kmh E 6.9 mph11.1 kmh 30.31 in1026.4 mb - 0.00 in0.0 mm 0.00 in0.0 mm
04:40 AM 5.8°F-14.6°C 1.2°F-17.1°C 81% 4.6 mph E7.4 kmh E 6.9 mph11.1 kmh 30.32 in1026.8 mb - 0.00 in0.0 mm 0.00 in0.0 mm
04:50 AM 5.9°F-14.5°C 1.3°F-17.1°C 81% 3.5 mph E5.6 kmh E 4.6 mph7.4 kmh 30.33 in1027.1 mb - 0.00 in0.0 mm 0.00 in0.0 mm
05:00 AM 6.1°F-14.4°C 1.5°F-16.9°C 81% 2.3 mph E3.7 kmh E 4.6 mph7.4 kmh 30.33 in1027.1 mb - 0.00 in0.0 mm 0.00 in0.0 mm
05:10 AM 6.1°F-14.4°C 1.5°F-16.9°C 81% 3.5 mph E5.6 kmh E 6.9 mph11.1 kmh 30.33 in1027.1 mb - 0.00 in0.0 mm 0.00 in0.0 mm
05:20 AM 6.0°F-14.4°C 1.2°F-17.1°C 80% 4.6 mph E7.4 kmh E 6.9 mph11.1 kmh 30.33 in1027.1 mb - 0.00 in0.0 mm 0.00 in0.0 mm
05:30 AM 6.0°F-14.4°C 1.4°F-17.0°C 81% 4.6 mph E7.4 kmh E 6.9 mph11.1 kmh 30.33 in1027.1 mb - 0.00 in0.0 mm 0.00 in0.0 mm
05:40 AM 6.2°F-14.3°C 1.4°F-17.0°C 80% 2.3 mph E3.7 kmh E 4.6 mph7.4 kmh 30.34 in1027.4 mb - 0.00 in0.0 mm 0.00 in0.0 mm
05:50 AM 6.4°F-14.2°C 1.8°F-16.8°C 81% 2.3 mph ENE3.7 kmh ENE 3.5 mph5.6 kmh 30.34 in1027.4 mb - 0.00 in0.0 mm 0.00 in0.0 mm
06:00 AM 6.6°F-14.1°C 2.0°F-16.7°C 81% 1.2 mph NE1.9 kmh NE 2.3 mph3.7 kmh 30.35 in1027.8 mb - 0.00 in0.0 mm 0.00 in0.0 mm
06:10 AM 6.4°F-14.2°C 1.8°F-16.8°C 81% 2.3 mph NE3.7 kmh NE 3.5 mph5.6 kmh 30.34 in1027.4 mb - 0.00 in0.0 mm 0.00 in0.0 mm
06:20 AM 6.7°F-14.1°C 2.4°F-16.4°C 82% 3.5 mph E5.6 kmh E 4.6 mph7.4 kmh 30.34 in1027.4 mb - 0.00 in0.0 mm 0.00 in0.0 mm
06:30 AM 6.9°F-13.9°C 2.6°F-16.3°C 82% 5.8 mph E9.3 kmh E 6.9 mph11.1 kmh 30.34 in1027.4 mb - 0.00 in0.0 mm 0.00 in0.0 mm
06:40 AM 6.9°F-13.9°C 2.6°F-16.3°C 82% 3.5 mph E5.6 kmh E 4.6 mph7.4 kmh 30.35 in1027.8 mb - 0.00 in0.0 mm 0.00 in0.0 mm
06:50 AM 7.1°F-13.8°C 2.7°F-16.3°C 82% 3.5 mph ENE5.6 kmh ENE 6.9 mph11.1 kmh 30.36 in1028.1 mb - 0.00 in0.0 mm 0.00 in0.0 mm
07:00 AM 6.8°F-14.0°C 2.5°F-16.4°C 82% 2.3 mph NE3.7 kmh NE 3.5 mph5.6 kmh 30.36 in1028.1 mb - 0.00 in0.0 mm 0.00 in0.0 mm
07:10 AM 6.7°F-14.1°C 2.4°F-16.4°C 82% 2.3 mph NE3.7 kmh NE 3.5 mph5.6 kmh 30.36 in1028.1 mb - 0.00 in0.0 mm 0.00 in0.0 mm
07:20 AM 6.7°F-14.1°C 2.4°F-16.4°C 82% 2.3 mph ENE3.7 kmh ENE 3.5 mph5.6 kmh 30.36 in1028.1 mb - 0.00 in0.0 mm 0.00 in0.0 mm
07:30 AM 6.7°F-14.1°C 2.4°F-16.4°C 82% 3.5 mph E5.6 kmh E 5.8 mph9.3 kmh 30.36 in1028.1 mb - 0.00 in0.0 mm 0.00 in0.0 mm
07:40 AM 6.7°F-14.1°C 2.4°F-16.4°C 82% 5.8 mph E9.3 kmh E 8.1 mph13.0 kmh 30.36 in1028.1 mb - 0.00 in0.0 mm 0.00 in0.0 mm
07:50 AM 6.7°F-14.1°C 2.4°F-16.4°C 82% 4.6 mph E7.4 kmh E 5.8 mph9.3 kmh 30.36 in1028.1 mb - 0.00 in0.0 mm 0.00 in0.0 mm
08:00 AM 6.7°F-14.1°C 2.4°F-16.4°C 82% 3.5 mph E5.6 kmh E 5.8 mph9.3 kmh 30.37 in1028.4 mb - 0.00 in0.0 mm 0.00 in0.0 mm
08:10 AM 6.7°F-14.1°C 2.4°F-16.4°C 82% 4.6 mph ENE7.4 kmh ENE 5.8 mph9.3 kmh 30.37 in1028.4 mb - 0.00 in0.0 mm 0.00 in0.0 mm
08:20 AM 6.7°F-14.1°C 2.4°F-16.4°C 82% 4.6 mph E7.4 kmh E 5.8 mph9.3 kmh 30.38 in1028.8 mb - 0.00 in0.0 mm 0.00 in0.0 mm
08:30 AM 6.7°F-14.1°C 2.4°F-16.4°C 82% 3.5 mph E5.6 kmh E 5.8 mph9.3 kmh 30.37 in1028.4 mb - 0.00 in0.0 mm 0.00 in0.0 mm
08:40 AM 6.7°F-14.1°C 2.4°F-16.4°C 82% 4.6 mph E7.4 kmh E 5.8 mph9.3 kmh 30.38 in1028.8 mb - 0.00 in0.0 mm 0.00 in0.0 mm
08:50 AM 6.7°F-14.1°C 2.4°F-16.4°C 82% 4.6 mph E7.4 kmh E 5.8 mph9.3 kmh 30.38 in1028.8 mb - 0.00 in0.0 mm 0.00 in0.0 mm
09:00 AM 6.7°F-14.1°C 2.4°F-16.4°C 82% 3.5 mph E5.6 kmh E 5.8 mph9.3 kmh 30.38 in1028.8 mb - 0.00 in0.0 mm 0.00 in0.0 mm
09:10 AM 6.7°F-14.1°C 2.4°F-16.4°C 82% 3.5 mph E5.6 kmh E 5.8 mph9.3 kmh 30.38 in1028.8 mb - 0.00 in0.0 mm 0.00 in0.0 mm
09:20 AM 6.7°F-14.1°C 2.4°F-16.4°C 82% 4.6 mph E7.4 kmh E 5.8 mph9.3 kmh 30.37 in1028.4 mb - 0.00 in0.0 mm 0.00 in0.0 mm
09:30 AM 10.1°F-12.2°C 4.6°F-15.2°C 78% 4.6 mph E7.4 kmh E 6.9 mph11.1 kmh 30.37 in1028.4 mb - 0.00 in0.0 mm 0.00 in0.0 mm
09:40 AM 10.4°F-12.0°C 4.9°F-15.1°C 78% 4.6 mph ENE7.4 kmh ENE 6.9 mph11.1 kmh 30.38 in1028.8 mb - 0.00 in0.0 mm 0.00 in0.0 mm
09:50 AM 10.9°F-11.7°C 5.4°F-14.8°C 78% 5.8 mph E9.3 kmh E 6.9 mph11.1 kmh 30.38 in1028.8 mb - 0.00 in0.0 mm 0.00 in0.0 mm
10:00 AM 11.6°F-11.3°C 5.8°F-14.6°C 77% 4.6 mph ESE7.4 kmh ESE 6.9 mph11.1 kmh 30.38 in1028.8 mb - 0.00 in0.0 mm 0.00 in0.0 mm
10:10 AM 11.9°F-11.2°C 5.8°F-14.6°C 76% 5.8 mph E9.3 kmh E 8.1 mph13.0 kmh 30.38 in1028.8 mb - 0.00 in0.0 mm 0.00 in0.0 mm
10:20 AM 11.5°F-11.4°C 5.7°F-14.6°C 77% 4.6 mph E7.4 kmh E 5.8 mph9.3 kmh 30.38 in1028.8 mb - 0.00 in0.0 mm 0.00 in0.0 mm
10:30 AM 12.4°F-10.9°C 6.3°F-14.3°C 76% 4.6 mph E7.4 kmh E 5.8 mph9.3 kmh 30.39 in1029.1 mb - 0.00 in0.0 mm 0.00 in0.0 mm
10:40 AM 12.7°F-10.7°C 6.5°F-14.2°C 76% 3.5 mph E5.6 kmh E 5.8 mph9.3 kmh 30.39 in1029.1 mb - 0.00 in0.0 mm 0.00 in0.0 mm
10:50 AM 12.6°F-10.8°C 6.5°F-14.2°C 76% 3.5 mph E5.6 kmh E 5.8 mph9.3 kmh 30.39 in1029.1 mb - 0.00 in0.0 mm 0.00 in0.0 mm
11:00 AM 13.2°F-10.4°C 6.8°F-14.0°C 75% 3.5 mph E5.6 kmh E 5.8 mph9.3 kmh 30.39 in1029.1 mb - 0.00 in0.0 mm 0.00 in0.0 mm
11:10 AM 13.2°F-10.4°C 6.5°F-14.2°C 74% 4.6 mph E7.4 kmh E 5.8 mph9.3 kmh 30.38 in1028.8 mb - 0.00 in0.0 mm 0.00 in0.0 mm
11:20 AM 13.4°F-10.3°C 7.0°F-13.9°C 75% 3.5 mph E5.6 kmh E 5.8 mph9.3 kmh 30.38 in1028.8 mb - 0.00 in0.0 mm 0.00 in0.0 mm
11:30 AM 14.1°F-9.9°C 7.6°F-13.6°C 75% 3.5 mph E5.6 kmh E 4.6 mph7.4 kmh 30.38 in1028.8 mb - 0.00 in0.0 mm 0.00 in0.0 mm
11:40 AM 14.3°F-9.8°C 7.2°F-13.8°C 73% 3.5 mph E5.6 kmh E 4.6 mph7.4 kmh 30.38 in1028.8 mb - 0.00 in0.0 mm 0.00 in0.0 mm
11:50 AM 14.5°F-9.7°C 7.4°F-13.7°C 73% 2.3 mph E3.7 kmh E 4.6 mph7.4 kmh 30.38 in1028.8 mb - 0.00 in0.0 mm 0.00 in0.0 mm
12:00 PM 15.1°F-9.4°C 7.7°F-13.5°C 72% 2.3 mph E3.7 kmh E 3.5 mph5.6 kmh 30.38 in1028.8 mb - 0.00 in0.0 mm 0.00 in0.0 mm
12:10 PM 15.0°F-9.4°C 7.6°F-13.6°C 72% 2.3 mph E3.7 kmh E 3.5 mph5.6 kmh 30.37 in1028.4 mb - 0.00 in0.0 mm 0.00 in0.0 mm
12:20 PM 15.6°F-9.1°C 8.2°F-13.2°C 72% 3.5 mph E5.6 kmh E 4.6 mph7.4 kmh 30.37 in1028.4 mb - 0.00 in0.0 mm 0.00 in0.0 mm
12:30 PM 15.7°F-9.1°C 8.3°F-13.2°C 72% 2.3 mph E3.7 kmh E 2.3 mph3.7 kmh 30.37 in1028.4 mb - 0.00 in0.0 mm 0.00 in0.0 mm
12:40 PM 16.6°F-8.6°C 9.4°F-12.6°C 73% 2.3 mph ENE3.7 kmh ENE 3.5 mph5.6 kmh 30.37 in1028.4 mb - 0.00 in0.0 mm 0.00 in0.0 mm
12:50 PM 16.5°F-8.6°C 9.0°F-12.8°C 72% 2.3 mph NE3.7 kmh NE 3.5 mph5.6 kmh 30.37 in1028.4 mb - 0.00 in0.0 mm 0.00 in0.0 mm
01:00 PM 16.8°F-8.4°C 9.6°F-12.4°C 73% 3.5 mph ENE5.6 kmh ENE 3.5 mph5.6 kmh 30.36 in1028.1 mb - 0.00 in0.0 mm 0.00 in0.0 mm
01:10 PM 17.2°F-8.2°C 10.0°F-12.2°C 73% 2.3 mph E3.7 kmh E 3.5 mph5.6 kmh 30.36 in1028.1 mb - 0.00 in0.0 mm 0.00 in0.0 mm
01:20 PM 17.6°F-8.0°C 10.4°F-12.0°C 73% 3.5 mph E5.6 kmh E 4.6 mph7.4 kmh 30.36 in1028.1 mb - 0.00 in0.0 mm 0.00 in0.0 mm
01:30 PM 18.0°F-7.8°C 10.5°F-11.9°C 72% 3.5 mph E5.6 kmh E 5.8 mph9.3 kmh 30.36 in1028.1 mb - 0.00 in0.0 mm 0.00 in0.0 mm
01:40 PM 18.3°F-7.6°C 10.4°F-12.0°C 71% 3.5 mph E5.6 kmh E 4.6 mph7.4 kmh 30.36 in1028.1 mb - 0.00 in0.0 mm 0.00 in0.0 mm
01:50 PM 18.4°F-7.6°C 10.6°F-11.9°C 71% 2.3 mph ENE3.7 kmh ENE 3.5 mph5.6 kmh 30.36 in1028.1 mb - 0.00 in0.0 mm 0.00 in0.0 mm
02:00 PM 18.7°F-7.4°C 10.6°F-11.9°C 70% 2.3 mph ENE3.7 kmh ENE 2.3 mph3.7 kmh 30.35 in1027.8 mb - 0.01 in0.3 mm 0.01 in0.3 mm
02:10 PM 19.1°F-7.2°C 10.9°F-11.7°C 70% 1.2 mph NE1.9 kmh NE 2.3 mph3.7 kmh 30.35 in1027.8 mb - 0.00 in0.0 mm 0.01 in0.3 mm
02:20 PM 19.3°F-7.1°C 11.1°F-11.6°C 70% 1.2 mph NE1.9 kmh NE 2.3 mph3.7 kmh 30.35 in1027.8 mb - 0.01 in0.3 mm 0.02 in0.5 mm
02:30 PM 19.3°F-7.1°C 10.8°F-11.8°C 69% 2.3 mph E3.7 kmh E 3.5 mph5.6 kmh 30.35 in1027.8 mb - 0.00 in0.0 mm 0.02 in0.5 mm
02:40 PM 19.9°F-6.7°C 11.7°F-11.3°C 70% 1.2 mph E1.9 kmh E 3.5 mph5.6 kmh 30.35 in1027.8 mb - 0.00 in0.0 mm 0.02 in0.5 mm
02:50 PM 19.5°F-6.9°C 11.3°F-11.5°C 70% 1.2 mph E1.9 kmh E 1.2 mph1.9 kmh 30.35 in1027.8 mb - 0.00 in0.0 mm 0.02 in0.5 mm
03:00 PM 19.6°F-6.9°C 11.7°F-11.3°C 71% 3.5 mph S5.6 kmh S 5.8 mph9.3 kmh 30.34 in1027.4 mb - 0.00 in0.0 mm 0.02 in0.5 mm
03:10 PM 18.2°F-7.7°C 10.7°F-11.8°C 72% 3.5 mph S5.6 kmh S 3.5 mph5.6 kmh 30.34 in1027.4 mb - 0.01 in0.3 mm 0.03 in0.8 mm
03:20 PM 18.2°F-7.7°C 10.7°F-11.8°C 72% 2.3 mph SW3.7 kmh SW 3.5 mph5.6 kmh 30.35 in1027.8 mb - 0.00 in0.0 mm 0.03 in0.8 mm
03:30 PM 18.1°F-7.7°C 10.6°F-11.9°C 72% 1.2 mph S1.9 kmh S 3.5 mph5.6 kmh 30.35 in1027.8 mb - 0.00 in0.0 mm 0.03 in0.8 mm
03:40 PM 17.9°F-7.8°C 10.7°F-11.8°C 73% 1.2 mph SSE1.9 kmh SSE 2.3 mph3.7 kmh 30.35 in1027.8 mb - 0.00 in0.0 mm 0.03 in0.8 mm
03:50 PM 18.1°F-7.7°C 10.9°F-11.7°C 73% 2.3 mph S3.7 kmh S 3.5 mph5.6 kmh 30.35 in1027.8 mb - 0.00 in0.0 mm 0.03 in0.8 mm
04:00 PM 18.1°F-7.7°C 10.9°F-11.7°C 73% 1.2 mph S1.9 kmh S 2.3 mph3.7 kmh 30.35 in1027.8 mb - 0.00 in0.0 mm 0.03 in0.8 mm
04:10 PM 17.8°F-7.9°C 10.6°F-11.9°C 73% 2.3 mph S3.7 kmh S 3.5 mph5.6 kmh 30.34 in1027.4 mb - 0.00 in0.0 mm 0.03 in0.8 mm
04:20 PM 17.4°F-8.1°C 10.5°F-11.9°C 74% 2.3 mph S3.7 kmh S 3.5 mph5.6 kmh 30.33 in1027.1 mb - 0.01 in0.3 mm 0.04 in1.0 mm
04:30 PM 16.9°F-8.4°C 10.0°F-12.2°C 74% 3.5 mph S5.6 kmh S 4.6 mph7.4 kmh 30.33 in1027.1 mb - 0.00 in0.0 mm 0.04 in1.0 mm
04:40 PM 16.6°F-8.6°C 9.7°F-12.4°C 74% 1.2 mph S1.9 kmh S 2.3 mph3.7 kmh 30.33 in1027.1 mb - 0.00 in0.0 mm 0.04 in1.0 mm
04:50 PM 15.2°F-9.3°C 8.7°F-12.9°C 75% 1.2 mph S1.9 kmh S 3.5 mph5.6 kmh 30.33 in1027.1 mb - 0.00 in0.0 mm 0.04 in1.0 mm
05:00 PM 14.9°F-9.5°C 8.4°F-13.1°C 75% Calm Calm -- 30.33 in1027.1 mb - 0.00 in0.0 mm 0.04 in1.0 mm
05:10 PM 13.9°F-10.1°C 7.7°F-13.5°C 76% Calm Calm 1.2 mph1.9 kmh 30.34 in1027.4 mb - 0.00 in0.0 mm 0.04 in1.0 mm
05:20 PM 13.5°F-10.3°C 7.6°F-13.6°C 77% 1.2 mph S1.9 kmh S 2.3 mph3.7 kmh 30.34 in1027.4 mb - 0.00 in0.0 mm 0.04 in1.0 mm
05:30 PM 12.5°F-10.8°C 6.7°F-14.1°C 77% 1.2 mph S1.9 kmh S 2.3 mph3.7 kmh 30.34 in1027.4 mb - 0.00 in0.0 mm 0.04 in1.0 mm
05:40 PM 11.7°F-11.3°C 6.1°F-14.4°C 78% 1.2 mph S1.9 kmh S 1.2 mph1.9 kmh 30.34 in1027.4 mb - 0.00 in0.0 mm 0.04 in1.0 mm
05:50 PM 11.4°F-11.4°C 6.5°F-14.2°C 80% Calm Calm -- 30.34 in1027.4 mb - 0.00 in0.0 mm 0.04 in1.0 mm
06:00 PM 10.9°F-11.7°C 5.9°F-14.5°C 80% Calm Calm 2.3 mph3.7 kmh 30.34 in1027.4 mb - 0.00 in0.0 mm 0.04 in1.0 mm
06:10 PM 10.0°F-12.2°C 5.1°F-14.9°C 80% Calm Calm -- 30.34 in1027.4 mb - 0.00 in0.0 mm 0.04 in1.0 mm
06:20 PM 8.7°F-12.9°C 3.8°F-15.7°C 80% Calm Calm -- 30.34 in1027.4 mb - 0.00 in0.0 mm 0.04 in1.0 mm
06:30 PM 7.6°F-13.6°C 3.0°F-16.1°C 81% Calm Calm -- 30.34 in1027.4 mb - 0.00 in0.0 mm 0.04 in1.0 mm
06:40 PM 7.3°F-13.7°C 3.0°F-16.1°C 82% Calm Calm -- 30.34 in1027.4 mb - 0.00 in0.0 mm 0.04 in1.0 mm
06:50 PM 6.9°F-13.9°C 2.5°F-16.4°C 82% Calm Calm -- 30.34 in1027.4 mb - 0.00 in0.0 mm 0.04 in1.0 mm
07:00 PM 6.0°F-14.4°C 1.9°F-16.7°C 83% Calm Calm -- 30.34 in1027.4 mb - 0.00 in0.0 mm 0.04 in1.0 mm
07:10 PM 6.1°F-14.4°C 2.0°F-16.7°C 83% Calm Calm 1.2 mph1.9 kmh 30.34 in1027.4 mb - 0.00 in0.0 mm 0.04 in1.0 mm
07:20 PM 5.6°F-14.7°C 1.6°F-16.9°C 83% 1.2 mph SSE1.9 kmh SSE 3.5 mph5.6 kmh 30.33 in1027.1 mb - 0.00 in0.0 mm 0.04 in1.0 mm
07:30 PM 6.2°F-14.3°C 2.7°F-16.3°C 85% Calm Calm 1.2 mph1.9 kmh 30.33 in1027.1 mb - 0.00 in0.0 mm 0.04 in1.0 mm
07:40 PM 6.5°F-14.2°C 2.7°F-16.3°C 84% 1.2 mph SE1.9 kmh SE 2.3 mph3.7 kmh 30.33 in1027.1 mb - 0.00 in0.0 mm 0.04 in1.0 mm
07:50 PM 7.4°F-13.7°C 3.8°F-15.7°C 85% Calm Calm 1.2 mph1.9 kmh 30.33 in1027.1 mb - 0.00 in0.0 mm 0.04 in1.0 mm
08:00 PM 8.0°F-13.3°C 4.4°F-15.3°C 85% 2.3 mph SE3.7 kmh SE 3.5 mph5.6 kmh 30.33 in1027.1 mb - 0.00 in0.0 mm 0.04 in1.0 mm
08:10 PM 9.3°F-12.6°C 5.7°F-14.6°C 85% 1.2 mph ESE1.9 kmh ESE 1.2 mph1.9 kmh 30.32 in1026.8 mb - 0.00 in0.0 mm 0.04 in1.0 mm
08:20 PM 10.6°F-11.9°C 7.3°F-13.7°C 86% 1.2 mph SE1.9 kmh SE 3.5 mph5.6 kmh 30.32 in1026.8 mb - 0.00 in0.0 mm 0.04 in1.0 mm
08:30 PM 10.8°F-11.8°C 6.9°F-13.9°C 84% 1.2 mph SE1.9 kmh SE 1.2 mph1.9 kmh 30.32 in1026.8 mb - 0.00 in0.0 mm 0.04 in1.0 mm
08:40 PM 10.1°F-12.2°C 6.2°F-14.3°C 84% 1.2 mph SE1.9 kmh SE 1.2 mph1.9 kmh 30.32 in1026.8 mb - 0.00 in0.0 mm 0.04 in1.0 mm
08:50 PM 9.0°F-12.8°C 5.1°F-14.9°C 84% 1.2 mph SE1.9 kmh SE 2.3 mph3.7 kmh 30.31 in1026.4 mb - 0.00 in0.0 mm 0.04 in1.0 mm
09:00 PM 8.5°F-13.1°C 4.6°F-15.2°C 84% 1.2 mph SE1.9 kmh SE 2.3 mph3.7 kmh 30.31 in1026.4 mb - 0.00 in0.0 mm 0.04 in1.0 mm
09:10 PM 8.3°F-13.2°C 4.8°F-15.1°C 85% Calm Calm 1.2 mph1.9 kmh 30.32 in1026.8 mb - 0.00 in0.0 mm 0.04 in1.0 mm
09:20 PM 7.9°F-13.4°C 4.3°F-15.4°C 85% Calm Calm 1.2 mph1.9 kmh 30.32 in1026.8 mb - 0.00 in0.0 mm 0.04 in1.0 mm
09:30 PM 7.8°F-13.4°C 4.3°F-15.4°C 85% Calm Calm -- 30.32 in1026.8 mb - 0.00 in0.0 mm 0.04 in1.0 mm
09:40 PM 7.3°F-13.7°C 3.8°F-15.7°C 85% Calm Calm -- 30.32 in1026.8 mb - 0.00 in0.0 mm 0.04 in1.0 mm
09:50 PM 7.0°F-13.9°C 3.7°F-15.7°C 86% Calm Calm -- 30.32 in1026.8 mb - 0.00 in0.0 mm 0.04 in1.0 mm
10:00 PM 6.1°F-14.4°C 2.6°F-16.3°C 85% Calm Calm 1.2 mph1.9 kmh 30.31 in1026.4 mb - 0.00 in0.0 mm 0.04 in1.0 mm
10:10 PM 5.3°F-14.8°C 1.7°F-16.8°C 85% Calm Calm -- 30.31 in1026.4 mb - 0.00 in0.0 mm 0.04 in1.0 mm
10:20 PM 5.6°F-14.7°C 2.1°F-16.6°C 85% Calm Calm 1.2 mph1.9 kmh 30.31 in1026.4 mb - 0.00 in0.0 mm 0.04 in1.0 mm
10:30 PM 6.0°F-14.4°C 2.5°F-16.4°C 85% Calm Calm -- 30.30 in1026.1 mb - 0.00 in0.0 mm 0.04 in1.0 mm
10:40 PM 5.7°F-14.6°C 2.1°F-16.6°C 85% 1.2 mph SE1.9 kmh SE 1.2 mph1.9 kmh 30.30 in1026.1 mb - 0.00 in0.0 mm 0.04 in1.0 mm
10:50 PM 6.0°F-14.4°C 2.7°F-16.3°C 86% 1.2 mph SE1.9 kmh SE 1.2 mph1.9 kmh 30.29 in1025.7 mb - 0.00 in0.0 mm 0.04 in1.0 mm
11:00 PM 5.4°F-14.8°C 1.9°F-16.7°C 85% Calm Calm 1.2 mph1.9 kmh 30.30 in1026.1 mb - 0.00 in0.0 mm 0.04 in1.0 mm
11:10 PM 5.7°F-14.6°C 2.2°F-16.6°C 85% Calm Calm -- 30.30 in1026.1 mb - 0.00 in0.0 mm 0.04 in1.0 mm
11:20 PM 3.8°F-15.7°C 0.0°F-17.8°C 84% 1.2 mph SE1.9 kmh SE 2.3 mph3.7 kmh 30.29 in1025.7 mb - 0.00 in0.0 mm 0.04 in1.0 mm
11:30 PM 4.1°F-15.5°C 0.4°F-17.6°C 84% Calm Calm -- 30.29 in1025.7 mb - 0.00 in0.0 mm 0.04 in1.0 mm
11:40 PM 4.2°F-15.4°C 0.5°F-17.5°C 84% Calm Calm 1.2 mph1.9 kmh 30.28 in1025.4 mb - 0.00 in0.0 mm 0.04 in1.0 mm
11:50 PM 4.7°F-15.2°C 1.2°F-17.1°C 85% Calm Calm -- 30.28 in1025.4 mb - 0.00 in0.0 mm 0.04 in1.0 mm